createdAt,value
2022-10-13T00:00:05.854Z,5.40
2022-10-13T00:02:32.376Z,4.95
2022-10-13T00:04:58.780Z,5.15
2022-10-13T00:07:25.211Z,4.87
2022-10-13T00:09:51.645Z,6.25
2022-10-13T00:12:18.259Z,5.80
2022-10-13T00:14:44.963Z,5.70
2022-10-13T00:17:11.374Z,5.38
2022-10-13T00:19:37.800Z,5.97
2022-10-13T00:22:04.274Z,6.15
2022-10-13T00:24:30.687Z,5.75
2022-10-13T00:26:57.087Z,5.90
2022-10-13T00:29:23.559Z,5.72
2022-10-13T00:31:49.999Z,5.73
2022-10-13T00:34:16.448Z,5.82
2022-10-13T00:36:42.840Z,5.55
2022-10-13T00:39:09.278Z,5.30
2022-10-13T00:41:36.657Z,6.13
2022-10-13T00:44:05.982Z,5.20
2022-10-13T00:46:37.119Z,5.82
2022-10-13T00:49:14.395Z,5.22
2022-10-13T00:51:44.616Z,6.03
2022-10-13T00:54:16.800Z,5.85
2022-10-13T00:56:45.337Z,5.63
2022-10-13T00:59:24.706Z,6.53
2022-10-13T01:01:51.559Z,5.53
2022-10-13T01:04:22.580Z,5.72
2022-10-13T01:06:49.987Z,5.80
2022-10-13T01:09:16.429Z,6.97
2022-10-13T01:12:06.351Z,6.22
2022-10-13T01:14:38.312Z,6.07
2022-10-13T01:17:07.608Z,5.20
2022-10-13T01:20:11.745Z,6.18
2022-10-13T01:22:56.804Z,5.87
2022-10-13T01:25:39.298Z,5.70
2022-10-13T01:28:24.192Z,6.53
2022-10-13T01:31:28.901Z,5.85
2022-10-13T01:34:06.412Z,6.28
2022-10-13T01:36:55.384Z,5.77
2022-10-13T01:39:29.700Z,6.55
2022-10-13T01:42:11.297Z,6.32
2022-10-13T01:44:41.809Z,5.97
2022-10-13T01:47:10.583Z,5.65
2022-10-13T01:49:38.832Z,6.40
2022-10-13T01:52:10.130Z,6.10
2022-10-13T01:54:36.512Z,6.28
2022-10-13T01:57:02.983Z,6.28
2022-10-13T01:59:33.924Z,6.72
2022-10-13T02:02:11.511Z,5.83
2022-10-13T02:05:03.019Z,6.20
2022-10-13T02:07:45.981Z,6.32
2022-10-13T02:10:20.540Z,6.78
2022-10-13T02:12:56.571Z,6.85
2022-10-13T02:15:29.799Z,6.07
2022-10-13T02:17:56.694Z,6.20
2022-10-13T02:20:23.241Z,5.70
2022-10-13T02:22:57.376Z,5.70
2022-10-13T02:25:24.862Z,5.30
2022-10-13T02:27:52.737Z,5.73
2022-10-13T02:30:24.709Z,6.13
2022-10-13T02:32:51.265Z,6.35
2022-10-13T02:35:18.677Z,6.60
2022-10-13T02:37:45.184Z,5.90
2022-10-13T02:40:12.461Z,6.03
2022-10-13T02:42:39.165Z,5.72
2022-10-13T02:45:06.223Z,6.53
2022-10-13T02:47:32.719Z,6.03
2022-10-13T02:49:59.203Z,6.72
2022-10-13T02:52:25.619Z,5.63
2022-10-13T02:54:52.382Z,5.75
2022-10-13T02:57:18.976Z,6.18
2022-10-13T02:59:45.349Z,7.10
2022-10-13T03:02:11.878Z,6.00
2022-10-13T03:04:38.286Z,5.57
2022-10-13T03:07:04.686Z,6.28
2022-10-13T03:09:31.144Z,6.80
2022-10-13T03:11:57.576Z,5.88
2022-10-13T03:14:24.248Z,6.18
2022-10-13T03:16:50.772Z,5.43
2022-10-13T03:19:17.207Z,6.35
2022-10-13T03:21:43.643Z,5.85
2022-10-13T03:24:10.175Z,6.35
2022-10-13T03:26:36.766Z,6.45
2022-10-13T03:29:03.367Z,6.13
2022-10-13T03:31:29.937Z,5.68
2022-10-13T03:33:57.495Z,6.43
2022-10-13T03:36:24.096Z,6.85
2022-10-13T03:38:51.029Z,6.47
2022-10-13T03:41:18.776Z,5.80
2022-10-13T03:43:45.334Z,5.40
2022-10-13T03:46:13.556Z,5.80
2022-10-13T03:48:40.467Z,6.25
2022-10-13T03:51:12.930Z,6.30
2022-10-13T03:53:39.394Z,6.20
2022-10-13T03:56:07.730Z,6.40
2022-10-13T03:58:34.873Z,7.03
2022-10-13T04:01:05.519Z,5.70
2022-10-13T04:03:33.581Z,5.97
2022-10-13T04:06:02.008Z,5.87
2022-10-13T04:08:29.580Z,6.78
2022-10-13T04:11:05.322Z,6.18
2022-10-13T04:13:31.895Z,5.82
2022-10-13T04:16:05.613Z,7.07
2022-10-13T04:18:32.775Z,6.57
2022-10-13T04:20:59.275Z,6.95
2022-10-13T04:23:25.690Z,6.80
2022-10-13T04:25:52.265Z,6.50
2022-10-13T04:28:18.778Z,7.03
2022-10-13T04:30:49.248Z,6.33
2022-10-13T04:33:16.079Z,6.97
2022-10-13T04:35:42.571Z,6.75
2022-10-13T04:38:08.947Z,5.82
2022-10-13T04:40:35.976Z,7.35
2022-10-13T04:43:02.619Z,6.83
2022-10-13T04:45:29.256Z,6.65
2022-10-13T04:47:55.714Z,6.35
2022-10-13T04:50:22.316Z,6.93
2022-10-13T04:52:48.681Z,6.80
2022-10-13T04:55:15.151Z,7.23
2022-10-13T04:57:41.549Z,6.63
2022-10-13T05:00:08.452Z,6.20
2022-10-13T05:02:35.847Z,7.05
2022-10-13T05:05:02.456Z,6.85
2022-10-13T05:07:29.929Z,6.53
2022-10-13T05:09:56.729Z,6.00
2022-10-13T05:12:23.378Z,6.88
2022-10-13T05:14:50.000Z,7.15
2022-10-13T05:17:16.380Z,6.78
2022-10-13T05:19:42.959Z,6.83
2022-10-13T05:22:09.385Z,7.10
2022-10-13T05:24:38.568Z,6.53
2022-10-13T05:27:13.059Z,7.38
2022-10-13T05:29:40.095Z,7.55
2022-10-13T05:32:06.749Z,7.33
2022-10-13T05:34:33.293Z,7.57
2022-10-13T05:37:00.413Z,7.80
2022-10-13T05:39:27.216Z,7.20
2022-10-13T05:41:53.806Z,6.38
2022-10-13T05:44:20.741Z,6.97
2022-10-13T05:46:47.909Z,7.38
2022-10-13T05:49:14.332Z,7.25
2022-10-13T05:51:46.711Z,8.35
2022-10-13T05:54:22.928Z,7.32
2022-10-13T05:56:56.186Z,6.87
2022-10-13T05:59:27.291Z,7.65
2022-10-13T06:01:54.444Z,6.43
2022-10-13T06:04:26.914Z,7.90
2022-10-13T06:06:53.323Z,7.63
2022-10-13T06:09:19.866Z,7.70
2022-10-13T06:11:46.293Z,7.50
2022-10-13T06:14:12.639Z,7.95
2022-10-13T06:16:39.345Z,6.88
2022-10-13T06:19:06.183Z,7.28
2022-10-13T06:21:34.585Z,6.07
2022-10-13T06:56:55.514Z,7.10
2022-10-13T06:59:22.183Z,8.80
2022-10-13T07:01:49.284Z,8.00
2022-10-13T07:04:16.202Z,8.40
2022-10-13T07:06:42.644Z,7.90
2022-10-13T07:09:09.348Z,8.00
2022-10-13T07:11:36.072Z,8.13
2022-10-13T07:14:02.729Z,7.57
2022-10-13T07:16:29.320Z,9.32
2022-10-13T07:18:55.749Z,7.47
2022-10-13T07:21:22.871Z,7.97
2022-10-13T07:23:49.341Z,8.23
2022-10-13T07:26:16.690Z,9.18
2022-10-13T07:28:43.839Z,8.25
2022-10-13T07:31:14.479Z,8.73
2022-10-13T07:33:43.341Z,8.20
2022-10-13T07:36:10.863Z,7.70
2022-10-13T07:38:37.282Z,8.50
2022-10-13T07:41:05.208Z,8.50
2022-10-13T07:43:31.788Z,9.30
2022-10-13T07:45:59.663Z,9.80
2022-10-13T07:48:26.842Z,8.40
2022-10-13T07:50:53.229Z,9.95
2022-10-13T07:53:20.591Z,8.57
2022-10-13T07:55:47.017Z,8.27
2022-10-13T07:58:13.654Z,9.65
2022-10-13T08:00:40.077Z,11.20
2022-10-13T08:03:06.800Z,9.35
2022-10-13T08:05:33.226Z,10.95
2022-10-13T08:07:59.590Z,9.23
2022-10-13T08:10:26.637Z,9.45
2022-10-13T08:12:53.004Z,9.70
2022-10-13T08:15:19.362Z,9.35
2022-10-13T08:17:45.742Z,10.73
2022-10-13T08:20:13.299Z,9.68
2022-10-13T08:22:39.768Z,10.23
2022-10-13T08:25:07.316Z,10.57
2022-10-13T08:27:50.125Z,10.30
2022-10-13T08:30:18.096Z,10.82
2022-10-13T08:32:44.696Z,9.57
2022-10-13T08:35:11.688Z,9.40
2022-10-13T08:37:38.208Z,11.00
2022-10-13T08:40:05.015Z,9.50
2022-10-13T08:42:31.491Z,10.85
2022-10-13T08:47:54.344Z,10.68
2022-10-13T08:50:23.955Z,11.07
2022-10-13T08:52:55.225Z,10.82
2022-10-13T08:55:28.208Z,10.25
2022-10-13T08:57:54.603Z,10.57
2022-10-13T09:00:21.359Z,11.23
2022-10-13T09:02:49.526Z,10.83
2022-10-13T09:05:30.612Z,9.35
2022-10-13T09:07:59.563Z,9.07
2022-10-13T09:10:26.192Z,10.02
2022-10-13T09:12:52.699Z,10.02
2022-10-13T09:15:19.642Z,9.93
2022-10-13T09:18:10.704Z,9.55
2022-10-13T09:20:37.484Z,9.57
2022-10-13T09:23:06.371Z,8.52
2022-10-13T09:25:45.507Z,8.73
2022-10-13T09:28:24.584Z,8.27
2022-10-13T09:31:37.488Z,8.45
2022-10-13T09:34:25.022Z,7.43
2022-10-13T09:36:58.667Z,6.90
2022-10-13T09:39:25.431Z,7.38
2022-10-13T09:41:52.520Z,7.03
2022-10-13T09:44:29.772Z,7.38
2022-10-13T09:46:59.312Z,6.75
2022-10-13T09:49:45.095Z,6.90
2022-10-13T09:52:22.054Z,6.80
2022-10-13T09:54:51.457Z,6.47
2022-10-13T09:57:42.476Z,6.57
2022-10-13T10:00:23.577Z,7.15
2022-10-13T10:03:10.602Z,5.88
2022-10-13T10:05:51.240Z,6.25
2022-10-13T10:09:03.733Z,6.57
2022-10-13T10:11:34.568Z,5.75
2022-10-13T10:14:19.467Z,5.80
2022-10-13T10:17:12.156Z,5.78
2022-10-13T10:19:53.576Z,5.65
2022-10-13T10:22:29.213Z,5.70
2022-10-13T10:25:00.171Z,6.05
2022-10-13T10:27:38.962Z,5.90
2022-10-13T10:30:19.049Z,5.72
2022-10-13T10:33:17.824Z,6.07
2022-10-13T10:35:52.343Z,5.60
2022-10-13T10:38:30.996Z,7.13
2022-10-13T10:41:13.477Z,5.75
2022-10-13T10:43:51.904Z,5.78
2022-10-13T10:46:23.106Z,6.07
2022-10-13T10:48:54.801Z,5.77
2022-10-13T10:51:25.441Z,6.20
2022-10-13T10:54:20.226Z,5.90
2022-10-13T10:56:56.035Z,6.82
2022-10-13T10:59:50.083Z,6.72
2022-10-13T11:02:51.233Z,6.07
2022-10-13T11:05:18.202Z,5.28
2022-10-13T11:07:45.437Z,5.03
2022-10-13T11:10:16.452Z,6.88
2022-10-13T11:12:47.236Z,5.95
2022-10-13T11:15:22.450Z,5.73
2022-10-13T11:17:48.977Z,5.93
2022-10-13T11:20:35.592Z,6.00
2022-10-13T11:23:05.051Z,7.68
2022-10-13T11:25:46.256Z,8.07
2022-10-13T11:28:21.861Z,6.80
2022-10-13T11:30:57.438Z,7.95
2022-10-13T11:33:39.008Z,9.38
2022-10-13T11:36:39.582Z,8.32
2022-10-13T11:42:05.849Z,8.80
2022-10-13T11:44:42.371Z,8.95
2022-10-13T11:47:27.599Z,9.88
2022-10-13T11:50:12.614Z,9.93
2022-10-13T11:52:51.263Z,10.15
2022-10-13T11:55:21.047Z,8.80
2022-10-13T11:57:47.464Z,9.65
2022-10-13T12:00:19.169Z,10.30
2022-10-13T12:02:53.515Z,10.15
2022-10-13T12:05:25.530Z,8.88
2022-10-13T12:08:00.541Z,8.40
2022-10-13T12:10:33.320Z,9.63
2022-10-13T12:13:01.005Z,9.15
2022-10-13T12:15:38.914Z,8.32
2022-10-13T12:18:25.512Z,7.90
2022-10-13T12:20:57.129Z,7.63
2022-10-13T12:23:24.599Z,7.60
2022-10-13T12:25:57.195Z,6.72
2022-10-13T12:28:26.330Z,7.75
2022-10-13T12:30:55.791Z,8.95
2022-10-13T12:33:31.975Z,9.37
2022-10-13T12:36:19.582Z,7.65
2022-10-13T12:38:50.475Z,7.80
2022-10-13T12:41:22.587Z,7.33
2022-10-13T12:43:50.554Z,7.80
2022-10-13T12:46:47.465Z,7.93
2022-10-13T12:51:50.944Z,7.55
2022-10-13T12:54:22.519Z,6.57
2022-10-13T12:56:55.301Z,8.98
2022-10-13T12:59:23.958Z,7.40
2022-10-13T13:02:00.747Z,6.75
2022-10-13T13:04:31.713Z,6.43
2022-10-13T13:07:02.537Z,6.83
2022-10-13T13:09:30.144Z,7.35
2022-10-13T13:12:22.115Z,7.30
2022-10-13T13:14:52.473Z,6.57
2022-10-13T13:17:38.433Z,6.93
2022-10-13T13:20:32.293Z,7.57
2022-10-13T13:22:59.420Z,7.80
2022-10-13T13:25:26.645Z,8.05
2022-10-13T13:27:53.267Z,6.60
2022-10-13T13:30:22.368Z,7.68
2022-10-13T13:32:49.336Z,7.80
2022-10-13T13:35:15.751Z,7.53
2022-10-13T13:37:53.063Z,8.40
2022-10-13T13:40:25.841Z,8.68
2022-10-13T13:42:52.596Z,7.68
2022-10-13T13:45:21.961Z,8.23
2022-10-13T13:47:48.457Z,8.60
2022-10-13T13:50:22.195Z,8.50
2022-10-13T13:52:48.579Z,8.32
2022-10-13T13:55:15.339Z,8.15
2022-10-13T13:57:42.949Z,9.40
2022-10-13T14:00:11.966Z,8.82
2022-10-13T14:02:39.423Z,9.82
2022-10-13T14:05:07.575Z,9.60
2022-10-13T14:07:33.999Z,8.65
2022-10-13T14:10:02.119Z,8.83
2022-10-13T14:12:30.784Z,9.02
2022-10-13T14:14:58.565Z,8.15
2022-10-13T14:17:26.309Z,8.02
2022-10-13T14:19:52.697Z,8.85
2022-10-13T14:22:19.256Z,8.10
2022-10-13T14:24:45.625Z,8.73
2022-10-13T14:27:12.169Z,7.88
2022-10-13T14:29:38.715Z,8.20
2022-10-13T14:32:05.228Z,8.15
2022-10-13T14:34:33.147Z,8.17
2022-10-13T14:37:00.071Z,8.50
2022-10-13T14:39:26.835Z,8.85
2022-10-13T14:41:53.273Z,8.73
2022-10-13T14:44:19.715Z,8.77
2022-10-13T14:46:46.143Z,7.90
2022-10-13T14:49:12.781Z,7.78
2022-10-13T14:51:39.336Z,8.40
2022-10-13T14:54:06.963Z,8.35
2022-10-13T14:56:34.222Z,7.90
2022-10-13T14:59:02.709Z,8.67
2022-10-13T15:01:29.547Z,8.45
2022-10-13T15:03:56.356Z,8.05
2022-10-13T15:06:24.721Z,8.30
2022-10-13T15:08:51.942Z,8.52
2022-10-13T15:11:22.288Z,8.67
2022-10-13T15:13:49.082Z,7.43
2022-10-13T15:16:18.221Z,9.10
2022-10-13T15:18:45.675Z,8.10
2022-10-13T15:21:12.789Z,7.82
2022-10-13T15:23:39.689Z,7.80
2022-10-13T15:26:06.278Z,8.43
2022-10-13T15:28:41.079Z,8.70
2022-10-13T15:31:08.161Z,8.80
2022-10-13T15:33:34.784Z,7.72
2022-10-13T15:36:01.416Z,8.67
2022-10-13T15:38:27.899Z,7.82
2022-10-13T15:41:00.207Z,8.35
2022-10-13T15:43:26.999Z,8.02
2022-10-13T15:45:55.989Z,7.13
2022-10-13T15:48:22.847Z,8.67
2022-10-13T15:50:49.252Z,7.35
2022-10-13T15:53:15.704Z,8.05
2022-10-13T15:55:42.293Z,8.05
2022-10-13T15:58:12.820Z,8.38
2022-10-13T16:00:40.868Z,8.17
2022-10-13T16:03:07.506Z,8.23
2022-10-13T16:05:33.897Z,7.30
2022-10-13T16:08:00.400Z,8.63
2022-10-13T16:10:26.862Z,8.32
2022-10-13T16:12:53.415Z,7.90
2022-10-13T16:15:20.035Z,8.98
2022-10-13T16:17:46.576Z,8.60
2022-10-13T16:20:13.137Z,8.70
2022-10-13T16:22:39.549Z,8.57
2022-10-13T16:25:06.484Z,7.93
2022-10-13T16:27:32.950Z,8.27
2022-10-13T16:29:59.350Z,8.45
2022-10-13T16:32:25.854Z,8.43
2022-10-13T16:34:52.444Z,9.63
2022-10-13T16:37:19.903Z,9.43
2022-10-13T16:39:51.248Z,7.95
2022-10-13T16:42:18.291Z,8.40
2022-10-13T16:44:44.718Z,9.00
2022-10-13T16:47:15.929Z,8.32
2022-10-13T16:49:44.564Z,8.67
2022-10-13T16:52:11.071Z,9.82
2022-10-13T16:54:37.585Z,7.78
2022-10-13T16:57:04.152Z,9.45
2022-10-13T16:59:30.756Z,8.75
2022-10-13T17:01:57.873Z,9.00
2022-10-13T17:04:25.062Z,10.07
2022-10-13T17:06:51.783Z,9.60
2022-10-13T17:09:18.362Z,11.77
2022-10-13T17:11:44.864Z,10.70
2022-10-13T17:14:11.702Z,10.80
2022-10-13T17:16:38.348Z,10.00
2022-10-13T17:19:04.974Z,10.68
2022-10-13T17:21:31.572Z,11.55
2022-10-13T17:23:59.066Z,10.85
2022-10-13T17:26:25.929Z,11.30
2022-10-13T17:28:53.546Z,12.00
2022-10-13T17:31:22.293Z,12.35
2022-10-13T17:33:49.668Z,11.73
2022-10-13T17:36:22.195Z,13.57
2022-10-13T17:38:49.988Z,13.00
2022-10-13T17:41:17.531Z,12.35
2022-10-13T17:43:44.434Z,12.63
2022-10-13T17:46:39.396Z,12.35
2022-10-13T17:49:11.538Z,12.70
2022-10-13T17:51:39.493Z,13.00
2022-10-13T17:54:10.141Z,13.30
2022-10-13T17:56:39.424Z,12.82
2022-10-13T17:59:05.865Z,11.80
2022-10-13T18:01:34.275Z,12.27
2022-10-13T18:04:04.062Z,11.77
2022-10-13T18:06:37.930Z,12.27
2022-10-13T18:09:18.932Z,11.68
2022-10-13T18:11:50.640Z,10.68
2022-10-13T18:14:23.495Z,9.85
2022-10-13T18:16:51.064Z,9.60
2022-10-13T18:19:17.664Z,8.95
2022-10-13T18:21:44.040Z,9.43
2022-10-13T18:24:11.411Z,8.73
2022-10-13T18:26:37.930Z,8.73
2022-10-13T18:29:06.080Z,8.15
2022-10-13T18:31:34.969Z,8.85
2022-10-13T18:34:04.362Z,8.70
2022-10-13T18:36:36.487Z,8.82
2022-10-13T18:39:07.304Z,8.73
2022-10-13T18:41:35.851Z,8.57
2022-10-13T18:44:03.942Z,8.63
2022-10-13T18:46:31.383Z,9.65
2022-10-13T18:48:58.290Z,8.10
2022-10-13T18:51:25.924Z,7.95
2022-10-13T18:53:52.533Z,8.23
2022-10-13T18:56:25.163Z,7.25
2022-10-13T18:58:58.394Z,6.68
2022-10-13T19:01:27.618Z,6.82
2022-10-13T19:03:54.628Z,6.28
2022-10-13T19:06:26.595Z,7.10
2022-10-13T19:09:01.331Z,5.93
2022-10-13T19:11:29.004Z,5.97
2022-10-13T19:13:55.856Z,6.53
2022-10-13T19:16:24.198Z,5.80
2022-10-13T19:18:51.293Z,5.90
2022-10-13T19:21:19.400Z,6.18
2022-10-13T19:23:46.402Z,5.28
2022-10-13T19:26:15.908Z,5.47
2022-10-13T19:28:43.392Z,5.20
2022-10-13T19:31:15.521Z,5.63
2022-10-13T19:33:44.736Z,4.78
2022-10-13T19:36:19.234Z,5.20
2022-10-13T19:38:45.574Z,5.05
2022-10-13T19:41:11.951Z,5.60
2022-10-13T19:43:38.312Z,5.63
2022-10-13T19:46:06.921Z,5.97
2022-10-13T19:48:34.022Z,6.28
2022-10-13T19:51:01.358Z,6.65
2022-10-13T19:53:27.849Z,6.72
2022-10-13T19:55:54.188Z,6.00
2022-10-13T19:58:20.872Z,6.53
2022-10-13T20:00:47.451Z,6.55
2022-10-13T20:03:14.380Z,6.68
2022-10-13T20:05:41.403Z,6.85
2022-10-13T20:08:09.422Z,6.50
2022-10-13T20:10:40.678Z,6.82
2022-10-13T20:13:08.687Z,6.90
2022-10-13T20:15:39.875Z,7.40
2022-10-13T20:18:07.207Z,8.68
2022-10-13T20:20:35.195Z,8.27
2022-10-13T20:23:01.626Z,8.75
2022-10-13T20:25:28.241Z,7.97
2022-10-13T20:27:54.696Z,9.50
2022-10-13T20:30:21.061Z,8.10
2022-10-13T20:32:47.765Z,8.70
2022-10-13T20:35:14.187Z,8.02
2022-10-13T20:37:40.693Z,7.80
2022-10-13T20:40:07.479Z,7.72
2022-10-13T20:42:33.970Z,7.13
2022-10-13T20:45:00.394Z,7.22
2022-10-13T20:47:26.770Z,7.35
2022-10-13T20:49:53.255Z,7.28
2022-10-13T20:52:19.582Z,6.70
2022-10-13T20:54:45.936Z,7.60
2022-10-13T20:57:12.339Z,8.63
2022-10-13T20:59:38.797Z,8.13
2022-10-13T21:02:05.276Z,7.55
2022-10-13T21:04:31.724Z,8.27
2022-10-13T21:06:58.161Z,7.70
2022-10-13T21:09:24.697Z,10.13
2022-10-13T21:11:51.129Z,11.35
2022-10-13T21:14:17.573Z,11.70
2022-10-13T21:16:44.004Z,12.35
2022-10-13T21:19:10.522Z,12.77
2022-10-13T21:21:37.660Z,12.35
2022-10-13T21:24:06.592Z,13.43
2022-10-13T21:26:33.864Z,12.93
2022-10-13T21:29:01.218Z,13.35
2022-10-13T21:31:29.219Z,14.15
2022-10-13T21:33:55.988Z,13.88
2022-10-13T21:36:28.223Z,13.05
2022-10-13T21:38:58.251Z,13.38
2022-10-13T21:41:25.928Z,13.98
2022-10-13T21:43:53.226Z,14.17
2022-10-13T21:46:28.299Z,14.65
2022-10-13T21:48:56.709Z,15.52
2022-10-13T21:51:31.734Z,14.02
2022-10-13T21:54:00.718Z,14.45
2022-10-13T21:56:28.264Z,19.20
2022-10-13T21:58:55.159Z,15.30
2022-10-13T22:01:22.844Z,15.43
2022-10-13T22:03:53.810Z,15.00
2022-10-13T22:06:20.577Z,15.43
2022-10-13T22:08:50.208Z,14.83
2022-10-13T22:11:17.565Z,15.55
2022-10-13T22:13:44.284Z,14.48
2022-10-13T22:16:19.912Z,17.15
2022-10-13T22:18:46.803Z,14.27
2022-10-13T22:21:19.311Z,15.55
2022-10-13T22:23:46.766Z,14.90
2022-10-13T22:26:14.775Z,13.90
2022-10-13T22:28:41.390Z,16.42
2022-10-13T22:31:11.692Z,18.02
2022-10-13T22:33:42.818Z,12.27
2022-10-13T22:36:15.599Z,14.02
2022-10-13T22:38:42.970Z,14.43
2022-10-13T22:41:10.060Z,12.98
2022-10-13T22:43:36.770Z,15.50
2022-10-13T22:46:04.281Z,13.67
2022-10-13T22:48:30.950Z,11.77
2022-10-13T22:50:57.622Z,12.80
2022-10-13T22:53:24.409Z,15.15
2022-10-13T22:55:50.995Z,14.90
2022-10-13T22:58:17.439Z,14.25
2022-10-13T23:00:43.882Z,16.27
2022-10-13T23:03:13.827Z,12.43
2022-10-13T23:05:47.375Z,12.07
2022-10-13T23:08:14.100Z,13.70
2022-10-13T23:10:40.540Z,11.98
2022-10-13T23:13:07.063Z,15.15
2022-10-13T23:15:33.628Z,12.68
2022-10-13T23:18:00.360Z,12.20
2022-10-13T23:20:26.857Z,12.25
2022-10-13T23:22:54.282Z,13.87
2022-10-13T23:25:20.714Z,14.10
2022-10-13T23:27:47.198Z,14.82
2022-10-13T23:30:13.944Z,13.18
2022-10-13T23:32:41.206Z,13.50
2022-10-13T23:35:07.942Z,13.48
2022-10-13T23:37:34.407Z,15.20
2022-10-13T23:40:00.951Z,12.57
2022-10-13T23:42:27.409Z,15.70
2022-10-13T23:44:53.830Z,12.60
2022-10-13T23:47:20.506Z,13.48
2022-10-13T23:49:47.100Z,11.30
2022-10-13T23:52:13.654Z,8.88
2022-10-13T23:54:40.128Z,11.48
2022-10-13T23:57:06.545Z,12.43
2022-10-13T23:59:33.421Z,10.13
